• Join FlightAware (Why Join?)
  • Login
  • US Flag 
07:37PM EST


 

Airport Tracker/Info


-or-


 

Live Flight TrackerFlight Track Log ✈ ASQ5181 ✈ 13-Jul-2013 ✈ KMSP - KSTL

Flight Track Log - Related Links

Times and Time Zones

All times are in EDT time to prevent confusion due to time zone crossing. See the ASQ5181 flight status page for this flight to view local times or setup timezone preferences in your user account.

Time Position Orientation Groundspeed Altitude Reporting Facility
EDT Latitude Longitude Course Direction KTS MPH feet Rate Location/Type
10:09AM 44.8667 -93.1833 115° Southeast 159 183 2,900  Level Minneapolis TRACON
10:10AM 44.8500 -93.1333 115° Southeast 195 224 5,300 2,280 Climbing Minneapolis TRACON
10:12AM 44.7939 -93.0083 122° Southeast 278 320 8,400 2,340 Climbing Minneapolis Center
10:13AM 44.7467 -92.9153 126° Southeast 293 337 11,000 2,340 Climbing Minneapolis Center
10:14AM 44.6947 -92.8147 126° Southeast 317 365 13,300 1,740 Climbing Minneapolis Center
10:15AM 44.6364 -92.7022 126° Southeast 365 420 14,600 1,680 Climbing Minneapolis Center
10:16AM 44.5733 -92.5794 126° Southeast 385 443 16,800 2,100 Climbing Minneapolis Center
10:17AM 44.4956 -92.4325 127° Southeast 390 449 19,000 1,920 Climbing Minneapolis Center
10:18AM 44.4264 -92.3078 128° Southeast 403 464 20,800 1,500 Climbing Minneapolis Center
10:19AM 44.3503 -92.1850 131° Southeast 416 479 22,100 1,140 Climbing Minneapolis Center
10:20AM 44.2658 -92.1203 151° Southeast 430 495 23,200 1,200 Climbing Minneapolis Center
10:21AM 44.1364 -92.0181 150° Southeast 444 511 24,600 840 Climbing Minneapolis Center
10:22AM 44.0244 -91.9325 151° Southeast 457 526 25,000 180 Climbing Minneapolis Center
10:23AM 43.9047 -91.8397 151° Southeast 487 560 25,000  Level Minneapolis Center
10:24AM 43.7711 -91.7325 150° Southeast 519 597 25,000  Level Minneapolis Center
10:25AM 43.6736 -91.6592 151° Southeast 508 585 25,000  Level Minneapolis Center
10:26AM 43.5275 -91.5500 152° Southeast 501 577 25,000  Level Minneapolis Center
10:27AM 43.3808 -91.4381 151° Southeast 504 580 25,000  Level Minneapolis Center
10:28AM 43.2578 -91.3439 151° Southeast 506 582 25,000  Level Minneapolis Center
10:29AM 43.1828 -91.2903 152° Southeast 507 583 25,000  Level Chicago Center
10:30AM 43.0572 -91.1964 151° Southeast 513 590 25,000  Level Chicago Center
10:31AM 42.9353 -91.1031 151° Southeast 505 581 25,000  Level Chicago Center
10:32AM 42.8139 -91.0122 151° Southeast 498 573 25,000  Level Chicago Center
10:33AM 42.6722 -90.9075 151° Southeast 485 558 25,000  Level Chicago Center
10:34AM 42.5550 -90.8225 152° Southeast 480 552 25,000  Level Chicago Center
10:35AM 42.4406 -90.7386 152° Southeast 473 544 25,000  Level Chicago Center
10:36AM 42.3186 -90.6750 159° South 477 549 25,000  Level Chicago Center
10:37AM 42.1917 -90.6219 163° South 480 552 25,000  Level Chicago Center
10:38AM 42.0594 -90.5669 163° South 489 563 25,000  Level Chicago Center
10:39AM 41.9050 -90.5014 162° South 495 570 25,000  Level Chicago Center
10:40AM 41.7717 -90.4483 163° South 501 577 25,000  Level Chicago Center
10:41AM 41.6394 -90.3953 163° South 497 572 25,000  Level Chicago Center
10:42AM 41.5069 -90.3397 163° South 498 573 25,000  Level Chicago Center
10:43AM 41.3736 -90.2856 163° South 501 577 25,000  Level Chicago Center
10:44AM 41.2392 -90.2317 163° South 503 579 25,000  Level Chicago Center
10:45AM 41.1047 -90.1775 163° South 505 581 25,000  Level Chicago Center
10:46AM 40.9472 -90.1142 163° South 505 581 25,000  Level Chicago Center
10:47AM 40.8128 -90.0608 163° South 509 586 25,000  Level Chicago Center
10:48AM 40.6758 -90.0067 163° South 516 594 25,000  Level Chicago Center
10:49AM 40.5414 -89.9519 163° South 514 592 25,000  Level Chicago Center
10:50AM 40.4025 -89.9003 164° South 520 598 25,000  Level Chicago Center
10:52AM 40.2658 -89.9556 197° South 527 606 25,000  Level Chicago Center
10:53AM 40.1211 -90.0897 215° Southwest 529 609 25,000 -240 Level Chicago Center
10:54AM 40.0011 -90.2047 216° Southwest 534 615 24,500 -600 Descending Kansas City Center
10:55AM 39.8808 -90.3153 215° Southwest 531 611 23,800 -1,800 Descending Kansas City Center
10:56AM 39.7453 -90.4397 215° Southwest 503 579 20,800 -2,400 Descending Kansas City Center
10:57AM 39.6497 -90.5278 215° Southwest 475 547 18,900 -1,740 Descending Kansas City Center
10:58AM 39.5469 -90.6217 215° Southwest 458 527 17,300 -2,040 Descending Kansas City Center
10:59AM 39.4292 -90.7292 215° Southwest 440 506 14,800 -2,400 Descending Kansas City Center
11:00AM 39.3397 -90.8108 215° Southwest 408 470 12,400 -2,040 Descending Kansas City Center
11:01AM 39.2536 -90.8236 187° South 330 380 10,700 -1,500 Descending Kansas City Center
11:02AM 39.1775 -90.7778 155° Southeast 309 356 9,400 -1,260 Descending Kansas City Center
11:03AM 39.1064 -90.7317 153° Southeast 294 338 8,100 -1,260 Descending Kansas City Center
11:04AM 39.0367 -90.6886 154° Southeast 284 327 6,800 -1,380 Descending Kansas City Center
11:05AM 38.9536 -90.6369 154° Southeast 279 321 5,300 -1,020 Descending Kansas City Center
11:06AM 38.8861 -90.5936 153° Southeast 274 315 4,700 -780 Descending Kansas City Center
11:07AM 38.8353 -90.5422 142° Southeast 246 283 3,700 -1,200 Descending Kansas City Center
11:08AM 38.8025 -90.4775 123° Southeast 226 260 2,300 -1,080 Descending Kansas City Center
11:09AM 38.7783 -90.4289 123° Southeast 184 212 1,500 -780 Descending Kansas City Center
11:10AM 38.7594 -90.3883 121° Southeast 148 170 800 -720 Descending Kansas City Center
11:12AM 38.7487 -90.3700 270° West  Level Estimated
11:19AM 38.7487 -90.3700 256° West  Level Estimated